createdAt,value
2024-05-09T00:01:40.745Z,9.60
2024-05-09T00:04:43.953Z,9.52
2024-05-09T00:07:46.278Z,10.32
2024-05-09T00:10:48.620Z,10.55
2024-05-09T00:13:51.029Z,9.10
2024-05-09T00:16:53.320Z,10.00
2024-05-09T00:19:55.720Z,10.23
2024-05-09T00:22:57.632Z,10.30
2024-05-09T00:25:59.704Z,9.70
2024-05-09T00:29:02.148Z,9.25
2024-05-09T00:32:05.214Z,11.00
2024-05-09T00:35:08.228Z,9.70
2024-05-09T00:38:11.089Z,10.18
2024-05-09T00:41:16.432Z,9.60
2024-05-09T00:44:19.859Z,10.07
2024-05-09T00:47:24.171Z,9.55
2024-05-09T00:50:35.466Z,9.55
2024-05-09T00:53:39.663Z,10.07
2024-05-09T00:56:42.611Z,10.40
2024-05-09T00:59:45.004Z,11.43
2024-05-09T01:02:47.259Z,10.55
2024-05-09T01:05:49.063Z,9.85
2024-05-09T01:08:51.257Z,9.98
2024-05-09T01:11:53.419Z,10.18
2024-05-09T01:14:55.157Z,9.63
2024-05-09T01:17:58.108Z,11.18
2024-05-09T01:21:00.077Z,10.18
2024-05-09T01:24:01.941Z,9.97
2024-05-09T01:27:04.323Z,10.27
2024-05-09T01:30:09.456Z,9.88
2024-05-09T01:33:14.776Z,9.98
2024-05-09T01:36:16.656Z,10.07
2024-05-09T01:39:18.406Z,9.95
2024-05-09T01:42:20.557Z,10.15
2024-05-09T01:45:22.258Z,9.70
2024-05-09T01:48:25.064Z,10.15
2024-05-09T01:51:26.942Z,10.38
2024-05-09T01:54:29.098Z,9.97
2024-05-09T01:57:30.833Z,10.25
2024-05-09T02:00:39.505Z,9.80
2024-05-09T02:03:48.200Z,9.55
2024-05-09T02:06:50.490Z,10.57
2024-05-09T02:09:53.330Z,10.23
2024-05-09T02:12:55.065Z,9.68
2024-05-09T02:15:56.899Z,9.70
2024-05-09T02:18:58.722Z,10.18
2024-05-09T02:22:00.609Z,10.00
2024-05-09T02:25:02.850Z,10.70
2024-05-09T02:28:04.988Z,9.73
2024-05-09T02:31:07.570Z,10.70
2024-05-09T02:34:09.396Z,10.32
2024-05-09T02:37:11.630Z,10.10
2024-05-09T02:40:15.025Z,10.52
2024-05-09T02:43:23.508Z,10.30
2024-05-09T02:46:25.710Z,9.80
2024-05-09T02:49:28.019Z,10.13
2024-05-09T02:52:29.828Z,9.73
2024-05-09T02:55:31.935Z,10.27
2024-05-09T02:58:33.674Z,9.65
2024-05-09T03:01:35.556Z,10.45
2024-05-09T03:04:38.874Z,9.43
2024-05-09T03:07:43.835Z,9.88
2024-05-09T03:10:46.123Z,10.05
2024-05-09T03:13:48.382Z,9.90
2024-05-09T03:16:50.350Z,9.60
2024-05-09T03:19:53.406Z,10.13
2024-05-09T03:22:56.892Z,10.55
2024-05-09T03:25:58.916Z,9.03
2024-05-09T03:29:00.710Z,9.60
2024-05-09T03:32:04.139Z,9.68
2024-05-09T03:35:06.943Z,9.05
2024-05-09T03:38:09.553Z,8.88
2024-05-09T03:41:12.653Z,9.25
2024-05-09T03:44:14.873Z,8.60
2024-05-09T03:47:16.827Z,8.97
2024-05-09T03:50:26.135Z,8.70
2024-05-09T03:53:35.519Z,8.68
2024-05-09T03:56:38.096Z,8.27
2024-05-09T03:59:39.945Z,8.52
2024-05-09T04:02:43.784Z,8.27
2024-05-09T04:05:45.994Z,8.73
2024-05-09T04:08:48.114Z,8.30
2024-05-09T04:11:50.420Z,8.30
2024-05-09T04:14:52.321Z,8.38
2024-05-09T04:17:54.758Z,8.80
2024-05-09T04:20:57.027Z,8.55
2024-05-09T04:23:59.291Z,8.70
2024-05-09T04:27:01.075Z,8.43
2024-05-09T04:30:06.178Z,8.07
2024-05-09T04:33:12.384Z,8.38
2024-05-09T04:36:15.897Z,8.73
2024-05-09T04:39:17.651Z,8.30
2024-05-09T04:42:19.419Z,7.82
2024-05-09T04:45:21.621Z,8.48
2024-05-09T04:48:23.520Z,8.20
2024-05-09T04:51:25.361Z,8.57
2024-05-09T04:54:34.261Z,8.30
2024-05-09T04:57:38.204Z,8.30
2024-05-09T05:00:40.934Z,7.80
2024-05-09T05:03:43.849Z,7.65
2024-05-09T05:06:46.184Z,8.00
2024-05-09T05:09:48.926Z,7.47
2024-05-09T05:13:09.872Z,7.95
2024-05-09T05:16:12.629Z,8.35
2024-05-09T05:19:17.532Z,7.67
2024-05-09T05:22:20.087Z,7.97
2024-05-09T05:25:22.222Z,7.50
2024-05-09T05:28:24.696Z,8.10
2024-05-09T05:31:27.260Z,7.75
2024-05-09T05:34:29.485Z,7.22
2024-05-09T05:37:31.968Z,7.80
2024-05-09T05:40:38.320Z,7.78
2024-05-09T05:43:41.640Z,7.22
2024-05-09T05:46:43.385Z,7.90
2024-05-09T05:49:45.568Z,7.67
2024-05-09T05:52:47.904Z,7.35
2024-05-09T05:55:50.232Z,7.72
2024-05-09T05:58:52.510Z,7.37
2024-05-09T06:01:54.798Z,8.00
2024-05-09T06:04:57.886Z,7.80
2024-05-09T06:08:02.596Z,7.93
2024-05-09T06:11:05.062Z,7.93
2024-05-09T06:14:07.021Z,7.90
2024-05-09T06:17:08.980Z,7.53
2024-05-09T06:20:20.156Z,8.30
2024-05-09T06:23:26.410Z,7.75
2024-05-09T06:26:29.388Z,8.65
2024-05-09T06:29:31.784Z,8.40
2024-05-09T06:32:34.236Z,8.05
2024-05-09T06:35:36.808Z,8.05
2024-05-09T06:38:38.934Z,8.57
2024-05-09T06:41:41.239Z,8.02
2024-05-09T06:44:43.122Z,8.00
2024-05-09T06:47:46.190Z,8.80
2024-05-09T06:50:48.876Z,8.37
2024-05-09T06:53:51.989Z,8.65
2024-05-09T06:56:54.226Z,8.77
2024-05-09T06:59:59.758Z,8.53
2024-05-09T07:03:05.460Z,8.25
2024-05-09T07:06:08.322Z,8.65
2024-05-09T07:09:10.134Z,9.07
2024-05-09T07:12:12.547Z,9.30
2024-05-09T07:15:14.879Z,8.30
2024-05-09T07:18:18.463Z,8.27
2024-05-09T07:21:21.893Z,8.87
2024-05-09T07:24:24.199Z,9.13
2024-05-09T07:27:27.976Z,8.93
2024-05-09T07:30:33.603Z,8.87
2024-05-09T07:33:36.913Z,8.57
2024-05-09T07:36:39.797Z,9.18
2024-05-09T07:39:42.615Z,8.50
2024-05-09T07:42:46.130Z,8.73
2024-05-09T07:45:53.102Z,8.82
2024-05-09T07:50:34.885Z,9.30
2024-05-09T07:55:24.190Z,8.20
2024-05-09T07:58:27.691Z,9.38
2024-05-09T08:01:30.174Z,10.20
2024-05-09T08:04:32.561Z,9.40
2024-05-09T08:07:35.790Z,10.00
2024-05-09T08:10:38.095Z,9.15
2024-05-09T08:13:40.006Z,9.57
2024-05-09T08:16:42.251Z,9.05
2024-05-09T08:19:44.589Z,9.57
2024-05-09T08:22:47.447Z,8.77
2024-05-09T08:25:50.309Z,9.00
2024-05-09T08:28:52.582Z,7.90
2024-05-09T08:31:59.183Z,9.15
2024-05-09T08:35:02.033Z,8.50
2024-05-09T08:38:06.304Z,8.47
2024-05-09T08:41:08.490Z,8.60
2024-05-09T08:44:11.771Z,8.43
2024-05-09T08:47:14.021Z,8.03
2024-05-09T08:50:28.788Z,7.45
2024-05-09T08:53:37.894Z,7.80
2024-05-09T08:56:43.796Z,7.63
2024-05-09T08:59:52.105Z,7.23
2024-05-09T09:02:56.214Z,7.50
2024-05-09T09:05:58.282Z,7.45
2024-05-09T09:09:00.554Z,7.57
2024-05-09T09:12:02.868Z,7.25
2024-05-09T09:15:04.919Z,7.28
2024-05-09T09:18:09.668Z,8.02
2024-05-09T09:21:13.840Z,7.43
2024-05-09T09:24:15.611Z,7.47
2024-05-09T09:27:21.811Z,7.57
2024-05-09T09:30:34.664Z,7.00
2024-05-09T09:33:42.972Z,7.00
2024-05-09T09:36:46.719Z,7.20
2024-05-09T09:39:49.458Z,7.20
2024-05-09T09:42:57.875Z,7.38
2024-05-09T09:46:02.036Z,6.72
2024-05-09T09:49:07.050Z,7.07
2024-05-09T09:52:11.397Z,6.57
2024-05-09T09:55:13.604Z,6.75
2024-05-09T09:58:18.637Z,6.45
2024-05-09T10:01:20.579Z,6.28
2024-05-09T10:04:24.249Z,5.65
2024-05-09T10:07:29.686Z,5.60
2024-05-09T10:10:34.678Z,5.10
2024-05-09T10:13:36.779Z,5.65
2024-05-09T10:16:44.971Z,5.72
2024-05-09T10:19:48.238Z,5.33
2024-05-09T10:22:51.011Z,5.03
2024-05-09T10:26:03.896Z,5.63
2024-05-09T10:29:17.090Z,5.82
2024-05-09T10:32:19.736Z,5.18
2024-05-09T10:35:22.762Z,4.78
2024-05-09T10:38:25.201Z,4.40
2024-05-09T10:41:27.362Z,4.38
2024-05-09T10:44:30.627Z,3.50
2024-05-09T10:47:32.680Z,2.75
2024-05-09T10:50:35.451Z,3.33
2024-05-09T10:53:45.527Z,2.85
2024-05-09T10:56:56.029Z,3.40
2024-05-09T11:00:00.228Z,3.20
2024-05-09T11:03:02.075Z,3.67
2024-05-09T11:06:04.399Z,4.45
2024-05-09T11:09:07.022Z,4.38
2024-05-09T11:12:09.628Z,4.40
2024-05-09T11:15:11.999Z,3.90
2024-05-09T11:18:25.922Z,4.00
2024-05-09T11:21:28.969Z,4.10
2024-05-09T11:24:37.685Z,3.85
2024-05-09T11:27:41.271Z,4.33
2024-05-09T11:30:43.693Z,4.55
2024-05-09T11:33:46.754Z,4.68
2024-05-09T11:36:48.849Z,4.55
2024-05-09T11:39:50.819Z,3.90
2024-05-09T11:42:53.388Z,4.03
2024-05-09T11:45:57.675Z,4.20
2024-05-09T11:48:59.899Z,4.20
2024-05-09T11:52:02.008Z,4.40
2024-05-09T11:55:05.183Z,4.43
2024-05-09T11:58:08.447Z,3.90
2024-05-09T12:01:15.106Z,4.40
2024-05-09T12:04:17.250Z,4.40
2024-05-09T12:07:24.789Z,4.35
2024-05-09T12:10:33.192Z,4.33
2024-05-09T12:13:37.277Z,4.70
2024-05-09T12:16:39.170Z,4.35
2024-05-09T12:19:41.083Z,4.53
2024-05-09T12:22:43.357Z,4.28
2024-05-09T12:25:45.158Z,4.50
2024-05-09T12:28:47.029Z,4.50
2024-05-09T12:31:48.879Z,4.75
2024-05-09T12:34:51.269Z,4.65
2024-05-09T12:37:53.459Z,4.80
2024-05-09T12:40:55.290Z,4.40
2024-05-09T12:43:57.090Z,4.50
2024-05-09T12:46:59.909Z,4.72
2024-05-09T12:50:02.027Z,5.00
2024-05-09T12:53:07.912Z,4.80
2024-05-09T12:56:10.219Z,5.60
2024-05-09T12:59:12.986Z,5.00
2024-05-09T13:02:15.890Z,4.90
2024-05-09T13:05:18.439Z,4.88
2024-05-09T13:08:21.034Z,4.75
2024-05-09T13:11:23.260Z,4.13
2024-05-09T13:14:25.527Z,4.32
2024-05-09T13:17:27.835Z,4.78
2024-05-09T13:20:33.560Z,4.90
2024-05-09T13:23:38.037Z,4.00
2024-05-09T13:26:39.919Z,4.47
2024-05-09T13:29:44.263Z,4.20
2024-05-09T13:32:47.081Z,4.30
2024-05-09T13:35:50.740Z,4.40
2024-05-09T13:38:53.611Z,4.35
2024-05-09T13:41:55.961Z,4.07
2024-05-09T13:44:57.881Z,3.85
2024-05-09T13:48:00.148Z,4.28
2024-05-09T13:51:03.222Z,4.50
2024-05-09T13:54:05.746Z,3.60
2024-05-09T13:57:08.355Z,3.80
2024-05-09T14:00:22.899Z,3.53
2024-05-09T14:03:33.468Z,3.60
2024-05-09T14:06:36.570Z,3.70
2024-05-09T14:09:38.522Z,3.53
2024-05-09T14:12:40.355Z,3.60
2024-05-09T14:15:43.557Z,3.53
2024-05-09T14:18:46.051Z,4.03
2024-05-09T14:21:48.588Z,3.90
2024-05-09T14:24:50.499Z,3.70
2024-05-09T14:27:53.291Z,3.40
2024-05-09T14:30:56.830Z,3.65
2024-05-09T14:33:58.804Z,3.90
2024-05-09T14:37:01.362Z,3.90
2024-05-09T14:40:06.953Z,3.77
2024-05-09T14:43:11.222Z,3.70
2024-05-09T14:46:13.365Z,3.63
2024-05-09T14:49:15.668Z,3.40
2024-05-09T14:52:17.718Z,3.90
2024-05-09T14:55:19.546Z,3.60
2024-05-09T14:58:21.390Z,3.72
2024-05-09T15:01:24.979Z,3.67
2024-05-09T15:04:28.621Z,3.80
2024-05-09T15:07:30.974Z,3.38
2024-05-09T15:10:35.767Z,3.60
2024-05-09T15:13:38.810Z,3.60
2024-05-09T15:16:41.059Z,4.03
2024-05-09T15:19:45.380Z,3.50
2024-05-09T15:22:47.595Z,3.70
2024-05-09T15:25:49.812Z,3.57
2024-05-09T15:28:52.083Z,4.00
2024-05-09T15:31:55.895Z,3.40
2024-05-09T15:34:57.758Z,3.40
2024-05-09T15:38:00.145Z,3.97
2024-05-09T15:41:02.081Z,3.67
2024-05-09T15:44:04.483Z,4.00
2024-05-09T15:47:06.811Z,3.58
2024-05-09T15:50:17.083Z,3.70
2024-05-09T15:53:22.739Z,4.05
2024-05-09T15:56:24.495Z,3.80
2024-05-09T15:59:26.360Z,3.90
2024-05-09T16:02:28.640Z,3.90
2024-05-09T16:05:31.512Z,3.60
2024-05-09T16:08:45.150Z,4.00
2024-05-09T16:11:48.116Z,3.30
2024-05-09T16:14:51.902Z,3.53
2024-05-09T16:17:54.968Z,3.92
2024-05-09T16:21:00.343Z,4.03
2024-05-09T16:24:02.341Z,4.00
2024-05-09T16:27:10.131Z,4.00
2024-05-09T16:30:21.232Z,4.20
2024-05-09T16:33:30.186Z,4.00
2024-05-09T16:36:32.347Z,3.50
2024-05-09T16:39:34.466Z,4.00
2024-05-09T16:42:36.382Z,3.40
2024-05-09T16:45:46.245Z,3.65
2024-05-09T16:48:48.421Z,3.72
2024-05-09T16:51:50.356Z,3.75
2024-05-09T16:54:52.384Z,3.75
2024-05-09T16:57:55.895Z,4.07
2024-05-09T17:00:57.965Z,3.85
2024-05-09T17:04:00.185Z,3.60
2024-05-09T17:07:02.380Z,3.47
2024-05-09T17:10:06.768Z,3.67
2024-05-09T17:13:10.692Z,3.50
2024-05-09T17:16:15.697Z,3.50
2024-05-09T17:19:17.888Z,3.53
2024-05-09T17:22:20.831Z,3.92
2024-05-09T17:25:22.967Z,4.15
2024-05-09T17:28:26.197Z,3.80
2024-05-09T17:31:28.871Z,3.97
2024-05-09T17:34:31.347Z,3.70
2024-05-09T17:37:52.294Z,3.58
2024-05-09T17:40:57.964Z,4.00
2024-05-09T17:44:01.024Z,4.00
2024-05-09T17:47:10.895Z,4.10
2024-05-09T17:50:27.242Z,3.72
2024-05-09T17:53:36.230Z,4.60
2024-05-09T17:56:40.561Z,4.60
2024-05-09T17:59:43.102Z,4.80
2024-05-09T18:02:45.433Z,4.18
2024-05-09T18:05:47.950Z,4.57
2024-05-09T18:08:57.243Z,5.90
2024-05-09T18:12:00.270Z,4.80
2024-05-09T18:15:31.777Z,4.43
2024-05-09T18:19:24.541Z,4.18
2024-05-09T18:22:35.207Z,4.00
2024-05-09T18:25:38.809Z,4.45
2024-05-09T18:28:56.590Z,4.63
2024-05-09T18:32:33.289Z,4.50
2024-05-09T18:36:07.417Z,4.57
2024-05-09T18:43:55.900Z,4.82
2024-05-09T18:50:55.031Z,5.35
2024-05-09T18:58:57.733Z,5.43
2024-05-09T19:01:59.637Z,6.00
2024-05-09T19:05:01.598Z,5.82
2024-05-09T19:08:03.756Z,6.43
2024-05-09T19:11:06.758Z,6.00
2024-05-09T19:14:09.068Z,6.28
2024-05-09T19:17:10.996Z,5.70
2024-05-09T19:20:24.681Z,5.60
2024-05-09T19:23:38.385Z,5.93
2024-05-09T19:26:46.035Z,6.10
2024-05-09T19:29:48.748Z,5.80
2024-05-09T19:32:51.129Z,6.10
2024-05-09T19:35:52.994Z,6.20
2024-05-09T19:38:54.922Z,6.28
2024-05-09T19:41:56.747Z,6.72
2024-05-09T19:45:00.878Z,6.70
2024-05-09T19:48:12.075Z,6.60
2024-05-09T19:51:14.247Z,6.57
2024-05-09T19:54:24.026Z,6.63
2024-05-09T19:57:26.292Z,6.53
2024-05-09T20:00:35.730Z,6.93
2024-05-09T20:03:49.932Z,7.13
2024-05-09T20:06:54.957Z,8.27
2024-05-09T20:10:00.117Z,8.57
2024-05-09T20:13:06.924Z,7.70
2024-05-09T20:16:12.904Z,8.07
2024-05-09T20:19:37.821Z,8.63
2024-05-09T20:22:40.045Z,9.38
2024-05-09T20:25:42.253Z,9.93
2024-05-09T20:28:46.276Z,9.27
2024-05-09T20:31:48.211Z,8.90
2024-05-09T20:34:51.792Z,9.70
2024-05-09T20:37:53.955Z,8.95
2024-05-09T20:40:56.257Z,9.83
2024-05-09T20:44:00.631Z,9.63
2024-05-09T20:47:03.255Z,8.68
2024-05-09T20:50:13.702Z,9.15
2024-05-09T20:53:22.134Z,8.38
2024-05-09T20:56:25.093Z,8.75
2024-05-09T20:59:26.804Z,8.70
2024-05-09T21:02:29.233Z,8.73
2024-05-09T21:05:32.623Z,8.50
2024-05-09T21:08:34.562Z,8.80
2024-05-09T21:11:36.377Z,8.57
2024-05-09T21:14:38.172Z,8.45
2024-05-09T21:17:39.950Z,8.52
2024-05-09T21:20:42.389Z,9.02
2024-05-09T21:23:44.368Z,8.82
2024-05-09T21:26:46.765Z,8.77
2024-05-09T21:29:48.531Z,8.55
2024-05-09T21:32:51.405Z,8.00
2024-05-09T21:35:55.496Z,8.25
2024-05-09T21:38:57.274Z,8.43
2024-05-09T21:42:01.910Z,8.50
2024-05-09T21:45:05.092Z,9.70
2024-05-09T21:48:07.549Z,10.43
2024-05-09T21:51:15.396Z,10.00
2024-05-09T21:54:17.230Z,10.35
2024-05-09T21:57:19.059Z,9.07
2024-05-09T22:00:28.967Z,8.93
2024-05-09T22:03:37.328Z,8.10
2024-05-09T22:06:39.131Z,7.80
2024-05-09T22:09:45.533Z,8.15
2024-05-09T22:12:47.445Z,8.03
2024-05-09T22:15:49.257Z,7.95
2024-05-09T22:18:51.642Z,7.13
2024-05-09T22:21:55.493Z,7.40
2024-05-09T22:24:57.337Z,7.53
2024-05-09T22:28:00.707Z,7.32
2024-05-09T22:31:03.159Z,7.63
2024-05-09T22:34:05.164Z,7.33
2024-05-09T22:37:07.092Z,7.25
2024-05-09T22:40:14.911Z,7.65
2024-05-09T22:43:23.127Z,7.13
2024-05-09T22:46:27.145Z,7.25
2024-05-09T22:49:30.025Z,7.18
2024-05-09T22:52:32.352Z,8.00
2024-05-09T22:55:34.615Z,7.53
2024-05-09T22:58:36.602Z,7.22
2024-05-09T23:01:38.481Z,7.15
2024-05-09T23:04:41.032Z,7.17
2024-05-09T23:07:47.907Z,7.40
2024-05-09T23:10:50.036Z,7.50
2024-05-09T23:13:52.243Z,6.97
2024-05-09T23:16:53.995Z,7.00
2024-05-09T23:19:56.159Z,7.25
2024-05-09T23:22:57.882Z,8.18
2024-05-09T23:26:00.123Z,7.53
2024-05-09T23:29:02.335Z,7.75
2024-05-09T23:32:05.670Z,7.47
2024-05-09T23:35:07.964Z,7.13
2024-05-09T23:38:10.300Z,7.35
2024-05-09T23:41:12.125Z,7.88
2024-05-09T23:44:14.288Z,7.90
2024-05-09T23:47:16.595Z,7.85
2024-05-09T23:50:26.325Z,8.18
2024-05-09T23:53:33.130Z,9.02
2024-05-09T23:56:35.285Z,9.75
2024-05-09T23:59:37.023Z,9.77
